createdAt,value
2024-02-10T00:01:22.969Z,80.89
2024-02-10T00:03:51.092Z,81.07
2024-02-10T00:06:17.756Z,81.39
2024-02-10T00:08:45.420Z,81.24
2024-02-10T00:11:12.969Z,80.92
2024-02-10T00:13:41.328Z,80.78
2024-02-10T00:16:08.285Z,81.05
2024-02-10T00:18:36.025Z,80.92
2024-02-10T00:21:03.817Z,80.70
2024-02-10T00:23:30.402Z,81.44
2024-02-10T00:25:57.999Z,81.09
2024-02-10T00:28:26.238Z,81.04
2024-02-10T00:30:55.962Z,80.31
2024-02-10T00:33:22.951Z,80.80
2024-02-10T00:35:49.598Z,80.48
2024-02-10T00:38:20.598Z,81.65
2024-02-10T00:40:47.240Z,81.69
2024-02-10T00:43:14.002Z,81.79
2024-02-10T00:45:41.282Z,82.44
2024-02-10T00:48:08.560Z,82.54
2024-02-10T00:50:35.310Z,82.22
2024-02-10T00:53:04.164Z,81.74
2024-02-10T00:55:32.402Z,82.26
2024-02-10T00:58:05.654Z,81.87
2024-02-10T01:00:32.991Z,82.16
2024-02-10T01:02:59.703Z,81.74
2024-02-10T01:05:26.640Z,82.98
2024-02-10T01:07:53.566Z,83.61
2024-02-10T01:10:21.708Z,83.89
2024-02-10T01:12:48.676Z,84.23
2024-02-10T01:15:15.218Z,85.17
2024-02-10T01:17:44.127Z,85.36
2024-02-10T01:20:13.933Z,85.13
2024-02-10T01:22:42.914Z,85.02
2024-02-10T01:25:10.105Z,85.68
2024-02-10T01:27:36.644Z,84.57
2024-02-10T01:30:04.503Z,84.09
2024-02-10T01:32:31.800Z,84.49
2024-02-10T01:34:58.515Z,84.12
2024-02-10T01:37:25.281Z,83.88
2024-02-10T01:39:55.832Z,83.81
2024-02-10T01:42:28.211Z,83.82
2024-02-10T01:44:54.730Z,83.46
2024-02-10T01:47:21.430Z,83.90
2024-02-10T01:49:48.305Z,83.47
2024-02-10T01:52:14.952Z,83.74
2024-02-10T01:54:41.669Z,83.67
2024-02-10T01:57:09.117Z,83.47
2024-02-10T01:59:39.151Z,83.92
2024-02-10T02:02:06.951Z,83.21
2024-02-10T02:04:36.990Z,83.90
2024-02-10T02:07:10.183Z,86.24
2024-02-10T02:09:37.501Z,86.48
2024-02-10T02:12:08.130Z,87.37
2024-02-10T02:14:38.516Z,87.92
2024-02-10T02:17:08.146Z,88.49
2024-02-10T02:19:34.818Z,87.55
2024-02-10T02:22:04.280Z,86.92
2024-02-10T02:24:31.134Z,86.76
2024-02-10T02:27:01.241Z,86.09
2024-02-10T02:29:27.739Z,86.69
2024-02-10T02:31:55.081Z,86.72
2024-02-10T02:34:23.322Z,86.38
2024-02-10T02:36:53.786Z,86.28
2024-02-10T02:39:21.667Z,86.44
2024-02-10T02:41:48.873Z,86.13
2024-02-10T02:44:18.401Z,86.79
2024-02-10T02:46:45.332Z,86.24
2024-02-10T02:49:16.179Z,86.18
2024-02-10T02:51:43.347Z,85.71
2024-02-10T02:54:10.119Z,86.40
2024-02-10T02:56:36.649Z,85.86
2024-02-10T02:59:03.194Z,85.82
2024-02-10T03:01:31.998Z,85.83
2024-02-10T03:03:58.604Z,86.11
2024-02-10T03:06:25.274Z,86.44
2024-02-10T03:08:51.836Z,85.59
2024-02-10T03:11:19.693Z,86.24
2024-02-10T03:13:49.474Z,86.36
2024-02-10T03:16:18.871Z,86.18
2024-02-10T03:18:49.014Z,86.22
2024-02-10T03:21:16.644Z,86.04
2024-02-10T03:23:45.746Z,86.03
2024-02-10T03:26:12.862Z,85.64
2024-02-10T03:28:39.999Z,86.21
2024-02-10T03:31:08.895Z,86.21
2024-02-10T03:33:36.070Z,86.76
2024-02-10T03:36:06.996Z,86.05
2024-02-10T03:38:33.625Z,86.36
2024-02-10T03:41:00.160Z,86.67
2024-02-10T03:43:28.289Z,87.08
2024-02-10T03:45:55.587Z,86.61
2024-02-10T03:48:22.430Z,86.47
2024-02-10T03:50:49.716Z,86.05
2024-02-10T03:53:18.638Z,86.04
2024-02-10T03:55:45.421Z,85.28
2024-02-10T03:58:17.294Z,84.51
2024-02-10T04:00:45.810Z,84.58
2024-02-10T04:03:13.371Z,84.93
2024-02-10T04:05:40.591Z,84.74
2024-02-10T04:08:11.392Z,85.01
2024-02-10T04:10:38.177Z,84.20
2024-02-10T04:13:07.233Z,84.44
2024-02-10T04:15:33.856Z,84.78
2024-02-10T04:18:01.299Z,85.29
2024-02-10T04:20:27.893Z,85.17
2024-02-10T04:22:57.128Z,84.68
2024-02-10T04:25:24.025Z,84.75
2024-02-10T04:27:50.583Z,85.31
2024-02-10T04:30:17.186Z,85.10
2024-02-10T04:32:48.243Z,85.27
2024-02-10T04:35:15.693Z,85.37
2024-02-10T04:37:55.240Z,85.96
2024-02-10T04:40:25.914Z,86.86
2024-02-10T04:42:54.017Z,86.54
2024-02-10T04:45:33.421Z,87.15
2024-02-10T04:48:01.085Z,87.05
2024-02-10T04:50:30.047Z,87.13
2024-02-10T04:52:59.605Z,86.99
2024-02-10T04:55:26.755Z,87.29
2024-02-10T04:57:54.262Z,86.95
2024-02-10T05:00:22.992Z,86.66
2024-02-10T05:02:52.234Z,86.36
2024-02-10T05:05:22.299Z,86.25
2024-02-10T05:07:54.943Z,86.18
2024-02-10T05:10:21.848Z,86.22
2024-02-10T05:12:49.926Z,86.10
2024-02-10T05:15:21.138Z,85.85
2024-02-10T05:17:52.322Z,85.64
2024-02-10T05:20:27.013Z,86.04
2024-02-10T05:22:55.490Z,85.71
2024-02-10T05:25:24.376Z,86.00
2024-02-10T05:27:51.918Z,85.78
2024-02-10T05:30:22.411Z,85.67
2024-02-10T05:32:51.412Z,86.18
2024-02-10T05:35:19.640Z,85.70
2024-02-10T05:37:47.682Z,85.92
2024-02-10T05:40:15.484Z,85.97
2024-02-10T05:42:47.034Z,86.07
2024-02-10T05:45:15.277Z,86.01
2024-02-10T05:47:41.843Z,85.35
2024-02-10T05:50:19.156Z,85.83
2024-02-10T05:52:49.994Z,85.63
2024-02-10T05:55:21.301Z,85.92
2024-02-10T05:57:51.267Z,86.19
2024-02-10T06:00:18.460Z,85.41
2024-02-10T06:02:45.043Z,86.06
2024-02-10T06:05:14.127Z,85.65
2024-02-10T06:07:42.423Z,85.73
2024-02-10T06:10:11.205Z,86.39
2024-02-10T06:12:42.157Z,85.61
2024-02-10T06:15:12.261Z,86.05
2024-02-10T06:17:39.671Z,85.64
2024-02-10T06:20:08.577Z,85.88
2024-02-10T06:22:35.696Z,85.58
2024-02-10T06:25:03.585Z,85.55
2024-02-10T06:27:31.227Z,85.94
2024-02-10T06:29:59.329Z,85.69
2024-02-10T06:32:26.003Z,86.48
2024-02-10T06:34:53.125Z,85.89
2024-02-10T06:37:26.312Z,86.04
2024-02-10T06:39:53.105Z,86.47
2024-02-10T06:42:19.766Z,86.30
2024-02-10T06:44:46.344Z,86.08
2024-02-10T06:47:12.892Z,85.96
2024-02-10T06:49:39.543Z,85.98
2024-02-10T06:52:06.305Z,85.79
2024-02-10T06:54:32.831Z,85.97
2024-02-10T06:56:59.499Z,86.05
2024-02-10T06:59:27.990Z,85.87
2024-02-10T07:01:56.035Z,86.05
2024-02-10T07:04:24.209Z,86.35
2024-02-10T07:06:58.931Z,85.24
2024-02-10T07:09:25.485Z,85.56
2024-02-10T07:11:52.083Z,85.11
2024-02-10T07:14:19.537Z,85.65
2024-02-10T07:16:47.058Z,85.28
2024-02-10T07:19:17.496Z,85.38
2024-02-10T07:21:47.876Z,85.93
2024-02-10T07:24:14.888Z,85.67
2024-02-10T07:26:43.842Z,86.02
2024-02-10T07:29:10.781Z,86.17
2024-02-10T07:31:39.532Z,85.80
2024-02-10T07:34:06.132Z,85.90
2024-02-10T07:36:38.980Z,86.58
2024-02-10T07:39:08.963Z,86.41
2024-02-10T07:41:44.906Z,86.05
2024-02-10T07:44:14.492Z,86.11
2024-02-10T07:46:41.159Z,86.00
2024-02-10T07:49:07.856Z,86.49
2024-02-10T07:51:34.858Z,85.92
2024-02-10T07:54:01.743Z,86.50
2024-02-10T07:56:31.133Z,85.99
2024-02-10T07:59:01.103Z,85.63
2024-02-10T08:01:28.021Z,85.59
2024-02-10T08:03:55.788Z,84.60
2024-02-10T08:06:29.090Z,84.62
2024-02-10T08:08:58.690Z,83.27
2024-02-10T08:11:26.825Z,82.60
2024-02-10T08:13:54.320Z,82.47
2024-02-10T08:16:23.052Z,83.26
2024-02-10T08:18:52.494Z,82.35
2024-02-10T08:21:21.896Z,82.49
2024-02-10T08:23:53.496Z,82.53
2024-02-10T08:26:20.899Z,82.53
2024-02-10T08:28:49.209Z,83.46
2024-02-10T08:31:17.142Z,83.39
2024-02-10T08:33:46.148Z,82.71
2024-02-10T08:36:14.292Z,82.88
2024-02-10T08:38:41.555Z,83.29
2024-02-10T08:41:08.149Z,83.48
2024-02-10T08:43:37.473Z,83.29
2024-02-10T08:46:04.595Z,82.99
2024-02-10T08:48:31.359Z,83.77
2024-02-10T08:50:57.917Z,83.71
2024-02-10T08:53:25.089Z,83.82
2024-02-10T08:55:52.182Z,84.46
2024-02-10T08:58:20.947Z,84.44
2024-02-10T09:00:47.934Z,84.37
2024-02-10T09:03:15.063Z,85.10
2024-02-10T09:05:42.505Z,84.66
2024-02-10T09:08:09.197Z,83.88
2024-02-10T09:10:35.863Z,84.46
2024-02-10T09:13:06.026Z,85.19
2024-02-10T09:15:32.854Z,85.13
2024-02-10T09:17:59.475Z,85.03
2024-02-10T09:20:34.576Z,85.11
2024-02-10T09:23:01.398Z,86.05
2024-02-10T09:25:29.253Z,85.34
2024-02-10T09:28:00.503Z,85.82
2024-02-10T09:30:27.249Z,86.01
2024-02-10T09:32:53.813Z,86.03
2024-02-10T09:35:30.901Z,86.04
2024-02-10T09:38:00.844Z,85.65
2024-02-10T09:40:27.693Z,86.14
2024-02-10T09:42:58.008Z,85.12
2024-02-10T09:45:25.914Z,85.32
2024-02-10T09:47:53.225Z,85.54
2024-02-10T09:50:30.872Z,85.62
2024-02-10T09:53:01.554Z,85.28
2024-02-10T09:55:28.299Z,84.98
2024-02-10T09:57:55.977Z,84.29
2024-02-10T10:00:22.526Z,84.75
2024-02-10T10:02:52.070Z,84.92
2024-02-10T10:05:21.966Z,84.64
2024-02-10T10:07:53.408Z,84.36
2024-02-10T10:10:21.132Z,83.39
2024-02-10T10:12:48.095Z,82.10
2024-02-10T10:15:14.942Z,81.93
2024-02-10T10:17:41.556Z,79.89
2024-02-10T10:20:11.086Z,79.09
2024-02-10T10:22:38.021Z,77.01
2024-02-10T10:25:06.736Z,76.88
2024-02-10T10:27:34.755Z,76.52
2024-02-10T10:30:02.736Z,76.50
2024-02-10T10:32:29.746Z,75.77
2024-02-10T10:34:59.490Z,74.39
2024-02-10T10:37:26.954Z,73.72
2024-02-10T10:39:54.970Z,71.87
2024-02-10T10:42:22.866Z,72.11
2024-02-10T10:44:52.223Z,70.85
2024-02-10T10:47:24.739Z,72.33
2024-02-10T10:49:55.379Z,73.82
2024-02-10T10:52:25.327Z,74.07
2024-02-10T10:54:51.978Z,75.38
2024-02-10T10:57:22.184Z,75.86
2024-02-10T11:00:00.006Z,76.32
2024-02-10T11:02:37.457Z,75.03
2024-02-10T11:05:14.172Z,75.95
2024-02-10T11:07:44.336Z,75.79
2024-02-10T11:10:11.025Z,77.22
2024-02-10T11:12:37.756Z,77.31
2024-02-10T11:15:10.199Z,77.40
2024-02-10T11:17:37.322Z,77.84
2024-02-10T11:20:06.432Z,75.63
2024-02-10T11:22:36.814Z,76.34
2024-02-10T11:25:17.332Z,76.06
2024-02-10T11:27:48.030Z,76.31
2024-02-10T11:30:14.566Z,75.86
2024-02-10T11:32:43.716Z,77.12
2024-02-10T11:35:11.283Z,76.82
2024-02-10T11:37:38.596Z,78.62
2024-02-10T11:40:05.815Z,79.49
2024-02-10T11:42:33.022Z,78.93
2024-02-10T11:45:03.455Z,78.41
2024-02-10T11:47:31.999Z,78.92
2024-02-10T11:49:58.824Z,78.98
2024-02-10T11:52:27.467Z,78.94
2024-02-10T11:54:55.969Z,79.49
2024-02-10T11:57:27.774Z,79.04
2024-02-10T11:59:56.824Z,77.46
2024-02-10T12:02:24.389Z,77.85
2024-02-10T12:04:52.249Z,78.31
2024-02-10T12:07:19.506Z,79.05
2024-02-10T12:09:46.095Z,78.92
2024-02-10T12:12:16.821Z,78.83
2024-02-10T12:14:43.480Z,78.88
2024-02-10T12:17:10.111Z,78.42
2024-02-10T12:19:38.113Z,77.66
2024-02-10T12:22:06.677Z,77.87
2024-02-10T12:24:33.246Z,77.11
2024-02-10T12:26:59.806Z,77.18
2024-02-10T12:29:30.384Z,77.57
2024-02-10T12:31:57.081Z,77.81
2024-02-10T12:34:25.097Z,77.47
2024-02-10T12:36:51.799Z,76.44
2024-02-10T12:39:19.833Z,76.77
2024-02-10T12:41:46.487Z,77.52
2024-02-10T12:44:13.301Z,76.68
2024-02-10T12:46:40.040Z,76.48
2024-02-10T12:49:09.772Z,76.24
2024-02-10T12:51:36.861Z,75.39
2024-02-10T12:54:03.632Z,75.89
2024-02-10T12:56:31.028Z,75.43
2024-02-10T12:58:58.415Z,75.45
2024-02-10T13:01:25.692Z,74.85
2024-02-10T13:03:52.671Z,74.92
2024-02-10T13:06:20.136Z,74.19
2024-02-10T13:08:47.437Z,74.22
2024-02-10T13:11:14.072Z,74.81
2024-02-10T13:13:45.760Z,74.29
2024-02-10T13:16:12.554Z,74.29
2024-02-10T13:18:45.213Z,73.98
2024-02-10T13:21:17.707Z,74.38
2024-02-10T13:23:45.197Z,74.23
2024-02-10T13:26:13.737Z,74.19
2024-02-10T13:28:43.990Z,74.91
2024-02-10T13:31:11.015Z,74.81
2024-02-10T13:33:41.155Z,74.46
2024-02-10T13:36:22.489Z,74.66
2024-02-10T13:39:07.706Z,74.26
2024-02-10T13:41:52.723Z,74.35
2024-02-10T13:44:37.896Z,74.04
2024-02-10T13:47:22.963Z,73.70
2024-02-10T13:50:08.133Z,73.92
2024-02-10T13:52:53.274Z,74.03
2024-02-10T13:55:38.523Z,74.10
2024-02-10T13:58:11.072Z,74.34
2024-02-10T14:00:40.482Z,74.19
2024-02-10T14:03:07.595Z,74.13
2024-02-10T14:06:04.726Z,73.90
2024-02-10T14:08:48.075Z,73.99
2024-02-10T14:11:30.783Z,74.11
2024-02-10T14:13:57.520Z,75.21
2024-02-10T14:16:30.948Z,75.83
2024-02-10T14:19:00.717Z,75.28
2024-02-10T14:21:33.936Z,75.65
2024-02-10T14:24:01.468Z,76.14
2024-02-10T14:26:43.330Z,76.27
2024-02-10T14:29:31.009Z,75.90
2024-02-10T14:32:04.114Z,75.42
2024-02-10T14:35:04.982Z,75.58
2024-02-10T14:37:48.276Z,75.83
2024-02-10T14:40:20.202Z,75.50
2024-02-10T14:42:47.153Z,75.99
2024-02-10T14:45:20.078Z,76.05
2024-02-10T14:47:46.795Z,76.37
2024-02-10T14:50:13.618Z,76.66
2024-02-10T14:52:45.639Z,76.50
2024-02-10T14:55:15.207Z,76.66
2024-02-10T14:57:41.725Z,76.51
2024-02-10T15:00:10.707Z,76.46
2024-02-10T15:02:40.980Z,76.95
2024-02-10T15:05:07.726Z,76.66
2024-02-10T15:07:34.310Z,76.70
2024-02-10T15:10:00.870Z,76.87
2024-02-10T15:12:30.864Z,76.76
2024-02-10T15:15:00.019Z,77.19
2024-02-10T15:17:26.815Z,77.28
2024-02-10T15:19:53.472Z,77.36
2024-02-10T15:22:20.462Z,77.38
2024-02-10T15:24:47.165Z,77.86
2024-02-10T15:27:15.585Z,78.20
2024-02-10T15:29:42.120Z,78.91
2024-02-10T15:32:10.003Z,78.61
2024-02-10T15:34:45.327Z,79.02
2024-02-10T15:37:18.081Z,79.17
2024-02-10T15:39:44.622Z,79.28
2024-02-10T15:42:12.493Z,79.47
2024-02-10T15:44:39.016Z,79.63
2024-02-10T15:47:05.576Z,79.58
2024-02-10T15:49:34.075Z,79.89
2024-02-10T15:52:00.762Z,80.00
2024-02-10T15:54:27.266Z,80.12
2024-02-10T15:56:54.149Z,80.62
2024-02-10T15:59:21.404Z,80.35
2024-02-10T16:01:51.838Z,80.46
2024-02-10T16:04:19.833Z,80.52
2024-02-10T16:06:50.960Z,81.26
2024-02-10T16:09:20.433Z,81.59
2024-02-10T16:11:47.001Z,81.77
2024-02-10T16:14:13.820Z,82.00
2024-02-10T16:16:40.491Z,82.09
2024-02-10T16:19:08.421Z,82.80
2024-02-10T16:21:35.006Z,82.33
2024-02-10T16:24:03.221Z,83.07
2024-02-10T16:26:29.898Z,82.68
2024-02-10T16:28:56.924Z,83.55
2024-02-10T16:31:25.396Z,83.50
2024-02-10T16:33:53.759Z,84.07
2024-02-10T16:36:22.988Z,83.42
2024-02-10T16:38:49.758Z,83.28
2024-02-10T16:41:23.952Z,83.63
2024-02-10T16:43:51.075Z,83.76
2024-02-10T16:46:18.454Z,83.79
2024-02-10T16:48:50.511Z,83.77
2024-02-10T16:51:27.321Z,83.64
2024-02-10T16:53:59.047Z,83.85
2024-02-10T16:56:25.590Z,84.45
2024-02-10T16:58:52.494Z,84.24
2024-02-10T17:01:20.011Z,84.26
2024-02-10T17:03:46.869Z,84.39
2024-02-10T17:06:13.715Z,84.71
2024-02-10T17:08:41.023Z,84.83
2024-02-10T17:11:08.664Z,84.50
2024-02-10T17:13:35.425Z,84.54
2024-02-10T17:16:02.131Z,84.81
2024-02-10T17:18:28.807Z,84.80
2024-02-10T17:20:58.630Z,84.79
2024-02-10T17:23:25.708Z,85.21
2024-02-10T17:25:53.704Z,84.64
2024-02-10T17:28:20.462Z,85.11
2024-02-10T17:30:49.461Z,84.35
2024-02-10T17:33:19.550Z,84.23
2024-02-10T17:35:50.552Z,84.58
2024-02-10T17:38:27.741Z,84.64
2024-02-10T17:40:57.428Z,83.89
2024-02-10T17:43:25.083Z,83.97
2024-02-10T17:45:56.579Z,84.15
2024-02-10T17:48:24.890Z,84.36
2024-02-10T17:50:53.425Z,84.17
2024-02-10T17:53:29.111Z,84.14
2024-02-10T17:55:59.942Z,84.10
2024-02-10T17:58:32.462Z,84.55
2024-02-10T18:01:00.209Z,84.51
2024-02-10T18:03:29.694Z,84.40
2024-02-10T18:05:57.903Z,84.86
2024-02-10T18:08:25.082Z,84.58
2024-02-10T18:10:51.894Z,84.48
2024-02-10T18:13:21.248Z,84.47
2024-02-10T18:15:48.017Z,84.94
2024-02-10T18:18:14.677Z,85.01
2024-02-10T18:20:41.502Z,85.52
2024-02-10T18:23:08.355Z,85.84
2024-02-10T18:25:36.229Z,86.10
2024-02-10T18:28:05.068Z,86.25
2024-02-10T18:30:31.722Z,86.42
2024-02-10T18:32:59.000Z,86.32
2024-02-10T18:35:25.793Z,87.03
2024-02-10T18:37:58.454Z,86.71
2024-02-10T18:40:28.296Z,86.76
2024-02-10T18:42:59.018Z,87.11
2024-02-10T18:45:26.231Z,87.10
2024-02-10T18:47:54.316Z,87.54
2024-02-10T18:50:21.032Z,87.46
2024-02-10T18:52:48.369Z,87.49
2024-02-10T18:55:16.021Z,87.46
2024-02-10T18:57:45.980Z,87.64
2024-02-10T19:00:20.985Z,88.15
2024-02-10T19:02:49.276Z,88.22
2024-02-10T19:05:16.958Z,88.14
2024-02-10T19:07:44.972Z,88.55
2024-02-10T19:10:11.909Z,88.55
2024-02-10T19:12:38.596Z,88.86
2024-02-10T19:15:08.680Z,88.88
2024-02-10T19:17:38.320Z,89.04
2024-02-10T19:20:09.009Z,89.17
2024-02-10T19:22:36.909Z,89.12
2024-02-10T19:25:08.182Z,89.38
2024-02-10T19:27:39.834Z,89.23
2024-02-10T19:30:10.716Z,89.53
2024-02-10T19:32:42.497Z,89.44
2024-02-10T19:35:23.167Z,89.76
2024-02-10T19:37:50.665Z,89.76
2024-02-10T19:40:19.624Z,90.32
2024-02-10T19:42:47.451Z,90.15
2024-02-10T19:45:16.059Z,89.94
2024-02-10T19:47:47.388Z,89.63
2024-02-10T19:50:15.147Z,90.20
2024-02-10T19:52:42.446Z,90.37
2024-02-10T19:55:09.696Z,90.41
2024-02-10T19:57:41.165Z,90.57
2024-02-10T20:00:11.434Z,90.12
2024-02-10T20:02:39.003Z,90.39
2024-02-10T20:05:07.605Z,90.61
2024-02-10T20:07:34.354Z,90.33
2024-02-10T20:10:01.198Z,90.48
2024-02-10T20:12:29.068Z,90.79
2024-02-10T20:14:57.723Z,90.27
2024-02-10T20:17:31.989Z,90.50
2024-02-10T20:20:17.803Z,90.47
2024-02-10T20:22:45.519Z,90.69
2024-02-10T20:25:13.490Z,91.00
2024-02-10T20:27:43.232Z,90.40
2024-02-10T20:30:11.145Z,91.37
2024-02-10T20:32:38.136Z,90.54
2024-02-10T20:35:05.206Z,90.91
2024-02-10T20:37:31.765Z,91.00
2024-02-10T20:39:58.368Z,90.94
2024-02-10T20:42:27.348Z,91.50
2024-02-10T20:44:53.957Z,90.79
2024-02-10T20:47:20.600Z,91.48
2024-02-10T20:49:47.515Z,91.45
2024-02-10T20:52:15.113Z,91.49
2024-02-10T20:54:44.296Z,91.50
2024-02-10T20:57:11.937Z,91.36
2024-02-10T20:59:39.457Z,91.68
2024-02-10T21:02:07.929Z,91.04
2024-02-10T21:04:35.162Z,91.46
2024-02-10T21:07:04.405Z,91.44
2024-02-10T21:09:30.946Z,91.89
2024-02-10T21:12:00.075Z,91.54
2024-02-10T21:14:28.030Z,91.74
2024-02-10T21:16:58.513Z,91.96
2024-02-10T21:19:25.893Z,91.35
2024-02-10T21:21:52.631Z,92.03
2024-02-10T21:24:21.654Z,92.08
2024-02-10T21:26:49.726Z,91.71
2024-02-10T21:31:43.194Z,92.31
2024-02-10T21:34:10.264Z,92.17
2024-02-10T21:36:37.016Z,92.05
2024-02-10T21:39:17.435Z,92.03
2024-02-10T21:41:44.733Z,92.10
2024-02-10T21:44:11.520Z,92.66
2024-02-10T21:46:38.519Z,92.08
2024-02-10T21:49:05.190Z,92.34
2024-02-10T21:51:37.756Z,92.62
2024-02-10T21:54:06.560Z,92.34
2024-02-10T21:56:41.651Z,92.33
2024-02-10T21:59:10.131Z,92.12
2024-02-10T22:01:39.782Z,92.95
2024-02-10T22:04:07.628Z,92.71
2024-02-10T22:06:34.398Z,92.25
2024-02-10T22:09:05.493Z,92.40
2024-02-10T22:11:32.296Z,92.60
2024-02-10T22:13:59.394Z,93.17
2024-02-10T22:16:26.026Z,92.49
2024-02-10T22:18:52.559Z,92.43
2024-02-10T22:21:19.289Z,92.37
2024-02-10T22:23:47.345Z,93.06
2024-02-10T22:26:16.287Z,92.98
2024-02-10T22:28:43.210Z,93.17
2024-02-10T22:31:10.096Z,93.30
2024-02-10T22:33:37.264Z,92.94
2024-02-10T22:36:05.318Z,93.31
2024-02-10T22:38:32.239Z,93.46
2024-02-10T22:40:59.029Z,93.80
2024-02-10T22:43:26.276Z,93.72
2024-02-10T22:45:52.968Z,94.00
2024-02-10T22:48:21.112Z,93.73
2024-02-10T22:50:47.921Z,93.82
2024-02-10T22:53:15.121Z,93.96
2024-02-10T22:55:45.295Z,93.99
2024-02-10T22:58:13.047Z,94.26
2024-02-10T23:00:45.321Z,94.13
2024-02-10T23:03:13.228Z,94.90
2024-02-10T23:05:40.109Z,95.15
2024-02-10T23:08:08.170Z,94.65
2024-02-10T23:10:36.548Z,95.02
2024-02-10T23:13:09.290Z,95.19
2024-02-10T23:15:41.713Z,94.76
2024-02-10T23:18:12.016Z,95.42
2024-02-10T23:20:48.330Z,94.87
2024-02-10T23:23:16.618Z,94.86
2024-02-10T23:25:44.070Z,95.23
2024-02-10T23:28:17.138Z,95.70
2024-02-10T23:30:45.287Z,95.91
2024-02-10T23:33:12.989Z,95.45
2024-02-10T23:35:40.723Z,95.69
2024-02-10T23:38:08.245Z,95.82
2024-02-10T23:40:35.941Z,95.92
2024-02-10T23:43:04.486Z,95.57
2024-02-10T23:45:32.403Z,95.55
2024-02-10T23:47:59.888Z,95.50
2024-02-10T23:50:29.297Z,95.47
2024-02-10T23:52:57.982Z,96.03
2024-02-10T23:55:24.613Z,95.59
2024-02-10T23:57:51.139Z,95.27
